Time;durP1;ratioP1;P1;durP2;ratioP2;P2;SDS_P1;SDS_P2;PMS_P1;PMS_P2;Temp;Humidity;BMP_temperature;BMP_pressure;BME280_temperature;BME280_humidity;BME280_pressure;Samples;Min_cycle;Max_cycle;Signal;HPM_P1;HPM_P2
2022/06/24 00:02:18;;;;;;;18.17;12.00;;;15.80;99.90;;;;;;5053440;28;20094;-69
2022/06/24 00:04:50;;;;;;;16.10;13.23;;;15.80;99.90;;;;;;5053074;28;20472;-69
2022/06/24 00:07:17;;;;;;;13.80;10.60;;;15.80;99.90;;;;;;5056992;28;20021;-68
2022/06/24 00:09:44;;;;;;;20.35;11.85;;;15.80;99.90;;;;;;5057481;28;20025;-68
2022/06/24 00:12:34;;;;;;;12.60;10.45;;;15.80;99.90;;;;;;5056966;28;20033;-69
2022/06/24 00:15:00;;;;;;;12.65;10.00;;;15.80;99.90;;;;;;5056739;28;20040;-69
2022/06/24 00:17:28;;;;;;;15.73;10.45;;;15.70;99.90;;;;;;5057050;28;20473;-69
2022/06/24 00:20:01;;;;;;;21.40;10.63;;;15.80;99.90;;;;;;5057092;28;20037;-68
2022/06/24 00:22:28;;;;;;;20.00;11.02;;;15.70;99.90;;;;;;5057148;28;20028;-68
2022/06/24 00:25:14;;;;;;;11.18;9.15;;;15.70;99.90;;;;;;5057130;28;20028;-68
2022/06/24 00:27:41;;;;;;;10.38;9.32;;;15.70;99.90;;;;;;5056765;28;20108;-69
2022/06/24 00:30:11;;;;;;;18.15;10.63;;;15.60;99.90;;;;;;5057152;28;20033;-68
2022/06/24 00:32:37;;;;;;;14.50;9.18;;;15.70;99.90;;;;;;5056634;28;20024;-68
2022/06/24 00:35:12;;;;;;;11.43;9.10;;;15.60;99.90;;;;;;5056984;28;20033;-68
2022/06/24 00:37:39;;;;;;;12.57;7.70;;;15.60;99.90;;;;;;5057464;28;20028;-68
2022/06/24 00:40:10;;;;;;;12.23;7.68;;;15.60;99.90;;;;;;5058192;28;20025;-69
2022/06/24 00:42:46;;;;;;;15.02;8.27;;;15.60;99.90;;;;;;5056929;28;20033;-69
2022/06/24 00:45:31;;;;;;;9.02;8.05;;;15.70;99.90;;;;;;5057158;28;20052;-69
2022/06/24 00:47:57;;;;;;;13.82;7.32;;;15.70;99.90;;;;;;5056741;28;20025;-69
2022/06/24 00:50:26;;;;;;;14.13;6.40;;;15.70;99.90;;;;;;5056615;28;20029;-69
2022/06/24 00:52:56;;;;;;;10.32;7.50;;;15.70;99.90;;;;;;5056243;28;20052;-69
2022/06/24 00:55:31;;;;;;;8.13;6.93;;;15.60;99.90;;;;;;5056426;28;20524;-69
2022/06/24 00:57:58;;;;;;;16.40;7.70;;;15.70;99.90;;;;;;5056473;28;20033;-69
2022/06/24 01:00:26;;;;;;;16.63;6.60;;;15.70;99.90;;;;;;5056202;28;20024;-69
2022/06/24 01:02:57;;;;;;;10.75;7.07;;;15.60;99.90;;;;;;5056273;28;20041;-70
2022/06/24 01:05:23;;;;;;;13.38;6.72;;;15.60;99.90;;;;;;5056073;28;20036;-69
2022/06/24 01:07:49;;;;;;;10.38;7.20;;;15.70;99.90;;;;;;5056703;28;20025;-69
2022/06/24 01:10:15;;;;;;;10.10;5.95;;;15.70;99.90;;;;;;5056258;28;20147;-69
2022/06/24 01:12:40;;;;;;;12.43;6.65;;;15.60;99.90;;;;;;5055810;28;20025;-70
2022/06/24 01:15:07;;;;;;;9.75;6.45;;;15.70;99.90;;;;;;5056439;28;20025;-69
2022/06/24 01:17:32;;;;;;;9.77;6.63;;;15.60;99.90;;;;;;5055979;28;20033;-69
2022/06/24 01:19:58;;;;;;;9.63;6.93;;;15.60;99.90;;;;;;5037911;28;20025;-69
2022/06/24 01:22:26;;;;;;;14.10;7.03;;;15.60;99.90;;;;;;5056181;28;20025;-70
2022/06/24 01:24:53;;;;;;;8.98;6.38;;;15.60;99.90;;;;;;5055733;28;20366;-69
2022/06/24 01:27:19;;;;;;;12.50;7.30;;;15.60;99.90;;;;;;5055983;28;20078;-69
2022/06/24 01:29:45;;;;;;;12.43;6.68;;;15.60;99.90;;;;;;5055650;28;20545;-69
2022/06/24 01:32:10;;;;;;;11.32;6.45;;;15.50;99.90;;;;;;5055543;28;20029;-70
2022/06/24 01:34:37;;;;;;;11.70;6.30;;;15.50;99.90;;;;;;5038120;28;20032;-69
2022/06/24 01:37:03;;;;;;;7.57;5.80;;;15.50;99.90;;;;;;5055761;28;20032;-69
2022/06/24 01:39:29;;;;;;;7.70;6.10;;;15.50;99.90;;;;;;5055706;28;20039;-70
2022/06/24 01:41:55;;;;;;;11.85;6.15;;;15.50;99.90;;;;;;5055196;28;20025;-69
2022/06/24 01:44:22;;;;;;;10.93;6.30;;;15.50;99.90;;;;;;5055472;28;20038;-70
2022/06/24 01:46:48;;;;;;;10.00;6.88;;;15.50;99.90;;;;;;5055358;28;20017;-69
2022/06/24 01:49:14;;;;;;;13.95;6.90;;;15.50;99.90;;;;;;5055375;28;20195;-70
2022/06/24 01:51:43;;;;;;;9.40;5.40;;;15.50;99.90;;;;;;5055222;28;20532;-69
2022/06/24 01:54:09;;;;;;;10.32;6.07;;;15.50;99.90;;;;;;5055334;28;20025;-69
2022/06/24 01:56:34;;;;;;;9.52;5.78;;;15.50;99.90;;;;;;5055157;28;20094;-69
2022/06/24 01:59:00;;;;;;;8.65;5.70;;;15.40;99.90;;;;;;5055151;28;20033;-69
2022/06/24 02:01:26;;;;;;;13.60;6.45;;;15.40;99.90;;;;;;5055065;28;20025;-70
2022/06/24 02:03:51;;;;;;;13.25;5.55;;;15.40;99.90;;;;;;5055139;28;20025;-69
2022/06/24 02:06:20;;;;;;;9.43;6.32;;;15.50;99.90;;;;;;5055014;28;20017;-69
2022/06/24 02:08:46;;;;;;;16.75;6.13;;;15.40;99.90;;;;;;5055025;28;20013;-70
2022/06/24 02:14:00;;;;;;;9.38;5.75;;;15.40;99.90;;;;;;5055119;28;20097;-69
2022/06/24 02:16:26;;;;;;;9.75;5.85;;;15.40;99.90;;;;;;5054901;28;20036;-69
2022/06/24 02:18:54;;;;;;;11.05;5.85;;;15.30;99.90;;;;;;5055135;28;20398;-69
2022/06/24 02:21:23;;;;;;;9.82;5.10;;;15.30;99.90;;;;;;5054681;28;20103;-69
2022/06/24 02:23:49;;;;;;;10.25;4.93;;;15.30;99.90;;;;;;5054648;28;20032;-69
2022/06/24 02:26:15;;;;;;;12.13;5.40;;;15.30;99.90;;;;;;5054825;28;20021;-69
2022/06/24 02:28:40;;;;;;;11.68;5.20;;;15.30;99.90;;;;;;5053894;28;20040;-69
2022/06/24 02:31:06;;;;;;;8.40;4.55;;;15.30;99.90;;;;;;5055065;28;20365;-69
2022/06/24 02:33:33;;;;;;;4.95;4.20;;;15.30;99.90;;;;;;5036374;28;20033;-69
2022/06/24 02:35:59;;;;;;;15.45;5.65;;;15.30;99.90;;;;;;5054386;28;20021;-69
2022/06/24 02:38:25;;;;;;;12.20;4.43;;;15.30;99.90;;;;;;5054441;28;20029;-69
2022/06/24 02:40:54;;;;;;;7.70;4.38;;;15.30;99.90;;;;;;5054443;28;20032;-69
2022/06/24 02:43:21;;;;;;;8.88;4.72;;;15.20;99.90;;;;;;5034035;28;20037;-69
2022/06/24 02:45:51;;;;;;;7.75;4.50;;;15.20;99.90;;;;;;5034212;28;20389;-69
2022/06/24 02:48:18;;;;;;;7.43;4.20;;;15.20;99.90;;;;;;5034496;28;20022;-69
2022/06/24 02:50:48;;;;;;;12.07;4.45;;;15.20;99.90;;;;;;5034254;28;20052;-69
2022/06/24 02:53:15;;;;;;;8.30;3.95;;;15.20;99.90;;;;;;5034237;28;20045;-69
2022/06/24 02:55:42;;;;;;;9.18;3.78;;;15.30;99.90;;;;;;5034195;28;20022;-69
2022/06/24 02:58:08;;;;;;;13.25;4.82;;;15.20;99.90;;;;;;5034093;28;20092;-69
2022/06/24 03:00:34;;;;;;;13.05;4.03;;;15.20;99.90;;;;;;5034429;28;20171;-69
2022/06/24 03:03:00;;;;;;;9.00;4.40;;;15.20;99.90;;;;;;5034404;28;20078;-69
2022/06/24 03:05:27;;;;;;;9.88;4.38;;;15.20;99.90;;;;;;5034101;28;20060;-69
2022/06/24 03:07:53;;;;;;;7.15;3.70;;;15.10;99.90;;;;;;5033995;28;20076;-69
2022/06/24 03:10:20;;;;;;;5.70;3.65;;;15.10;99.90;;;;;;5034009;28;20101;-69
2022/06/24 03:12:46;;;;;;;7.47;3.40;;;15.10;99.90;;;;;;5033765;28;20060;-70
2022/06/24 03:15:12;;;;;;;8.55;4.38;;;15.10;99.90;;;;;;5034169;28;20057;-69
2022/06/24 03:17:38;;;;;;;6.03;4.25;;;15.10;99.90;;;;;;5034141;28;20044;-69
2022/06/24 03:20:07;;;;;;;8.77;4.15;;;15.00;99.90;;;;;;5034083;28;20025;-70
2022/06/24 03:22:33;;;;;;;6.70;4.25;;;15.00;99.90;;;;;;5034257;28;20033;-69
2022/06/24 03:24:59;;;;;;;9.80;5.00;;;15.00;99.90;;;;;;5033997;28;20363;-69
2022/06/24 03:27:24;;;;;;;8.65;4.20;;;15.00;99.90;;;;;;5033719;28;20025;-70
2022/06/24 03:29:50;;;;;;;6.90;3.83;;;15.00;99.90;;;;;;5033755;28;20493;-70
2022/06/24 03:32:16;;;;;;;12.27;5.00;;;14.90;99.90;;;;;;5033738;28;20100;-69
2022/06/24 03:34:42;;;;;;;7.53;3.63;;;14.90;99.90;;;;;;5033971;28;20433;-69
2022/06/24 03:37:08;;;;;;;11.63;4.20;;;14.90;99.90;;;;;;5033855;28;20040;-69
2022/06/24 03:39:35;;;;;;;5.63;3.97;;;14.90;99.90;;;;;;5034059;28;20442;-69
2022/06/24 03:42:00;;;;;;;16.20;4.78;;;14.90;99.90;;;;;;5037617;28;20068;-69
2022/06/24 03:44:26;;;;;;;11.00;4.82;;;14.90;99.90;;;;;;5037638;28;20060;-69
2022/06/24 03:46:51;;;;;;;11.18;4.57;;;14.90;99.90;;;;;;5037884;28;20029;-70
2022/06/24 03:49:19;;;;;;;7.13;4.53;;;14.90;99.90;;;;;;5037645;28;20018;-69
2022/06/24 03:51:44;;;;;;;9.55;4.28;;;14.90;99.90;;;;;;5037508;28;20028;-70
2022/06/24 03:54:10;;;;;;;7.53;4.22;;;15.00;99.90;;;;;;5037542;28;20030;-69
2022/06/24 03:56:36;;;;;;;8.77;3.80;;;15.00;99.90;;;;;;5037600;28;20021;-69
2022/06/24 03:59:02;;;;;;;6.32;3.90;;;15.20;99.90;;;;;;5037418;28;20478;-69
2022/06/24 04:01:27;;;;;;;8.77;3.83;;;15.20;99.90;;;;;;5036163;28;20025;-69
2022/06/24 04:03:53;;;;;;;16.85;4.65;;;15.30;99.90;;;;;;5037275;28;20017;-70
2022/06/24 04:06:19;;;;;;;7.10;4.07;;;15.30;99.90;;;;;;5037364;28;20446;-70
2022/06/24 04:08:45;;;;;;;6.20;3.42;;;15.40;99.90;;;;;;5019537;28;20018;-69
2022/06/24 04:11:11;;;;;;;8.82;4.22;;;15.50;99.90;;;;;;5037187;28;20025;-69
2022/06/24 04:13:37;;;;;;;8.68;4.00;;;15.50;99.90;;;;;;5042301;28;20104;-70
2022/06/24 04:16:03;;;;;;;9.38;3.72;;;15.60;99.90;;;;;;5057298;28;20438;-69
2022/06/24 04:18:28;;;;;;;8.25;3.63;;;15.60;99.90;;;;;;5039900;28;20477;-69
2022/06/24 04:20:54;;;;;;;13.15;3.47;;;15.70;99.90;;;;;;5037089;28;20029;-69
2022/06/24 04:23:19;;;;;;;6.95;3.25;;;15.80;99.90;;;;;;5036832;28;20083;-69
2022/06/24 04:25:48;;;;;;;6.32;2.78;;;15.80;99.90;;;;;;5036839;28;20040;-69
2022/06/24 04:28:14;;;;;;;5.05;2.90;;;15.90;99.90;;;;;;5036891;28;20032;-69
2022/06/24 04:30:40;;;;;;;9.55;3.88;;;15.90;99.90;;;;;;5037175;28;20022;-69
2022/06/24 04:33:05;;;;;;;10.38;3.22;;;16.00;99.90;;;;;;5036994;28;20021;-69
2022/06/24 04:35:31;;;;;;;8.43;2.90;;;16.10;99.90;;;;;;5036991;28;20029;-69
2022/06/24 04:37:56;;;;;;;5.07;3.22;;;16.20;99.90;;;;;;5036703;28;20022;-69
2022/06/24 04:40:22;;;;;;;12.00;3.15;;;16.30;99.90;;;;;;5035314;28;20053;-69
2022/06/24 04:42:48;;;;;;;2.30;2.10;;;16.40;99.90;;;;;;5036715;28;20033;-69
2022/06/24 04:45:13;;;;;;;8.82;3.33;;;16.40;99.90;;;;;;5036770;28;20033;-69
2022/06/24 04:47:39;;;;;;;11.65;3.40;;;16.50;99.90;;;;;;5036547;28;20025;-69
2022/06/24 04:50:06;;;;;;;9.90;3.13;;;16.60;99.90;;;;;;5036531;28;20358;-69
2022/06/24 04:52:33;;;;;;;9.50;3.83;;;16.70;99.90;;;;;;5035724;28;20025;-69
2022/06/24 04:54:59;;;;;;;8.05;3.65;;;16.80;99.90;;;;;;5036809;28;20116;-69
2022/06/24 04:57:25;;;;;;;6.57;3.28;;;16.90;99.90;;;;;;5036351;28;20534;-69
2022/06/24 04:59:51;;;;;;;7.07;3.38;;;17.00;99.90;;;;;;5036563;28;20025;-69
2022/06/24 05:02:16;;;;;;;7.18;3.33;;;17.10;99.90;;;;;;5051020;28;20021;-69
2022/06/24 05:04:42;;;;;;;6.75;2.92;;;17.20;99.90;;;;;;5056670;28;20072;-69
2022/06/24 05:07:08;;;;;;;11.55;3.28;;;17.40;99.90;;;;;;5056096;28;20025;-69
2022/06/24 05:09:34;;;;;;;8.43;3.15;;;17.60;99.90;;;;;;5056099;28;20380;-69
2022/06/24 05:12:00;;;;;;;5.88;3.00;;;17.60;99.90;;;;;;5056069;28;20025;-69
2022/06/24 05:14:26;;;;;;;10.35;3.22;;;17.70;99.90;;;;;;5055948;28;20032;-69
2022/06/24 05:16:51;;;;;;;6.50;3.25;;;17.90;99.90;;;;;;5056207;28;20065;-69
2022/06/24 05:19:17;;;;;;;4.88;2.88;;;18.00;99.90;;;;;;5056197;28;20106;-69
2022/06/24 05:21:43;;;;;;;10.55;3.40;;;18.10;99.90;;;;;;5056198;28;20037;-69
2022/06/24 05:24:08;;;;;;;6.07;2.67;;;18.20;99.90;;;;;;5055838;28;20433;-69
2022/06/24 05:26:34;;;;;;;6.13;2.75;;;18.40;99.90;;;;;;5056583;28;20049;-69
2022/06/24 05:29:00;;;;;;;7.07;2.97;;;18.40;99.90;;;;;;5038047;28;20362;-69
2022/06/24 05:31:26;;;;;;;7.25;2.45;;;18.60;99.90;;;;;;5055718;28;20017;-69
2022/06/24 05:33:52;;;;;;;6.75;2.63;;;18.80;99.90;;;;;;5055572;28;20059;-69
2022/06/24 05:36:17;;;;;;;5.47;2.90;;;18.80;99.90;;;;;;5055586;28;20021;-69
2022/06/24 05:38:46;;;;;;;5.57;2.67;;;19.10;99.90;;;;;;5055886;28;20431;-69
2022/06/24 05:41:12;;;;;;;9.40;2.70;;;19.10;99.90;;;;;;5055685;28;20055;-70
2022/06/24 05:43:37;;;;;;;6.28;2.45;;;19.30;99.90;;;;;;5055289;28;20480;-69
2022/06/24 05:46:03;;;;;;;4.05;2.40;;;19.40;99.90;;;;;;5055709;28;20491;-69
2022/06/24 05:48:30;;;;;;;6.05;2.28;;;19.50;99.90;;;;;;5055473;28;20032;-69
2022/06/24 05:50:56;;;;;;;12.68;3.63;;;19.70;99.90;;;;;;5055728;28;20088;-69
2022/06/24 05:56:06;;;;;;;7.82;3.08;;;20.00;99.90;;;;;;5055529;28;20032;-69
2022/06/24 05:58:31;;;;;;;4.32;2.70;;;20.00;99.90;;;;;;5037293;28;20024;-69
2022/06/24 06:00:57;;;;;;;11.73;2.70;;;20.20;99.90;;;;;;5055061;28;20020;-69
2022/06/24 06:03:24;;;;;;;6.93;2.72;;;20.20;99.90;;;;;;5053727;28;20017;-69
2022/06/24 06:05:51;;;;;;;5.85;2.92;;;20.40;99.90;;;;;;5055282;28;20535;-69
2022/06/24 06:08:18;;;;;;;7.88;3.03;;;20.50;99.90;;;;;;5055094;28;20426;-69
2022/06/24 06:10:44;;;;;;;5.93;2.20;;;20.60;99.90;;;;;;5055201;28;20021;-69
2022/06/24 06:13:12;;;;;;;6.85;2.83;;;20.70;99.90;;;;;;5054766;28;20029;-69
2022/06/24 06:15:38;;;;;;;4.03;2.58;;;20.80;99.90;;;;;;5054855;28;20048;-69
2022/06/24 06:18:03;;;;;;;3.35;2.22;;;21.00;99.90;;;;;;5054915;28;20024;-69
2022/06/24 06:20:29;;;;;;;4.80;2.58;;;21.20;99.90;;;;;;5054691;28;20380;-68
2022/06/24 06:22:55;;;;;;;3.88;2.58;;;21.20;99.90;;;;;;5054841;28;20032;-68
2022/06/24 06:25:22;;;;;;;6.82;2.20;;;21.40;99.90;;;;;;5054525;28;20112;-69
2022/06/24 06:27:48;;;;;;;6.03;2.30;;;21.50;99.90;;;;;;5054856;28;20024;-70
2022/06/24 06:30:14;;;;;;;8.40;3.05;;;21.70;99.90;;;;;;5054529;28;20485;-70
2022/06/24 06:32:39;;;;;;;14.20;2.63;;;21.80;99.90;;;;;;5054423;28;20048;-71
2022/06/24 06:35:05;;;;;;;6.80;2.80;;;21.90;99.90;;;;;;5054478;28;20029;-70
2022/06/24 06:37:31;;;;;;;10.43;2.42;;;22.00;99.90;;;;;;5054694;28;20036;-70
2022/06/24 06:39:57;;;;;;;7.68;3.30;;;22.10;99.90;;;;;;5054802;28;20028;-70
2022/06/24 06:42:22;;;;;;;4.35;2.40;;;22.20;99.90;;;;;;5054241;28;20052;-70
2022/06/24 06:44:48;;;;;;;10.77;2.85;;;22.40;99.90;;;;;;5054876;28;20048;-70
2022/06/24 06:47:13;;;;;;;13.68;3.08;;;22.50;99.90;;;;;;5054339;28;20111;-70
2022/06/24 06:49:39;;;;;;;2.70;1.88;;;22.60;99.90;;;;;;5054376;28;20036;-70
2022/06/24 06:52:05;;;;;;;11.85;2.88;;;22.70;99.90;;;;;;5054046;28;20086;-70
2022/06/24 06:54:30;;;;;;;5.55;2.50;;;22.80;99.90;;;;;;5054235;28;20024;-69
2022/06/24 06:56:57;;;;;;;11.63;2.50;;;22.90;99.90;;;;;;5054031;28;20468;-70
2022/06/24 06:59:23;;;;;;;6.97;2.53;;;22.90;99.90;;;;;;5054055;28;20061;-70
2022/06/24 07:01:48;;;;;;;7.20;1.88;;;23.10;99.90;;;;;;5053846;28;20076;-70
2022/06/24 07:04:14;;;;;;;6.68;2.47;;;23.30;99.90;;;;;;5053907;28;20521;-69
2022/06/24 07:06:40;;;;;;;7.43;2.88;;;23.40;99.90;;;;;;5054035;28;20386;-69
2022/06/24 07:09:05;;;;;;;3.83;2.33;;;23.60;99.90;;;;;;5054167;28;20029;-70
2022/06/24 07:11:31;;;;;;;10.23;2.33;;;23.70;99.90;;;;;;5054212;28;20183;-70
2022/06/24 07:13:57;;;;;;;5.40;2.50;;;23.70;99.90;;;;;;5053931;28;20029;-69
2022/06/24 07:16:22;;;;;;;8.80;2.85;;;23.90;99.90;;;;;;5053665;28;20052;-70
2022/06/24 07:18:48;;;;;;;7.80;2.45;;;24.00;99.90;;;;;;5053818;28;20032;-69
2022/06/24 07:21:13;;;;;;;5.88;2.75;;;24.00;99.90;;;;;;5054245;28;20112;-68
2022/06/24 07:23:40;;;;;;;7.10;2.25;;;24.00;99.90;;;;;;5053541;28;20075;-69
2022/06/24 07:26:07;;;;;;;8.68;2.58;;;24.10;99.90;;;;;;5053858;28;20511;-69
2022/06/24 07:28:37;;;;;;;7.97;2.40;;;24.40;99.90;;;;;;5053863;28;20021;-69
2022/06/24 07:31:16;;;;;;;8.77;2.55;;;24.40;99.90;;;;;;5053707;28;20365;-69
2022/06/24 07:33:41;;;;;;;5.32;2.47;;;24.60;99.90;;;;;;5053790;28;20029;-68
2022/06/24 07:36:07;;;;;;;7.32;3.28;;;24.80;99.90;;;;;;5053603;28;20017;-69
2022/06/24 07:38:32;;;;;;;7.50;2.40;;;24.90;99.90;;;;;;5054244;28;20369;-68
2022/06/24 07:40:58;;;;;;;9.43;2.60;;;24.90;99.90;;;;;;5053773;28;20032;-69
2022/06/24 07:43:24;;;;;;;7.28;2.45;;;25.00;99.90;;;;;;5053475;28;20056;-69
2022/06/24 07:45:51;;;;;;;9.30;2.40;;;25.20;99.90;;;;;;5053548;28;20041;-69
2022/06/24 07:48:17;;;;;;;6.93;2.45;;;25.20;99.90;;;;;;5055193;28;20408;-68
2022/06/24 07:50:42;;;;;;;5.88;2.22;;;25.40;99.90;;;;;;5054992;28;20021;-69
2022/06/24 07:53:08;;;;;;;9.20;2.53;;;25.50;99.90;;;;;;5035518;28;20021;-69
2022/06/24 07:58:18;;;;;;;8.35;2.63;;;25.90;99.90;;;;;;5053653;28;20499;-69
2022/06/24 08:00:44;;;;;;;8.57;3.10;;;25.90;99.90;;;;;;5053457;28;20033;-69
2022/06/24 08:03:09;;;;;;;10.52;2.42;;;25.90;99.90;;;;;;5053264;28;20021;-69
2022/06/24 08:05:35;;;;;;;5.72;2.38;;;26.00;99.90;;;;;;5053520;28;20029;-69
2022/06/24 08:08:00;;;;;;;20.77;3.15;;;26.20;99.90;;;;;;5053294;28;20131;-69
2022/06/24 08:10:26;;;;;;;11.05;3.20;;;26.40;99.90;;;;;;5053290;28;20017;-68
2022/06/24 08:12:51;;;;;;;10.32;2.55;;;26.60;99.90;;;;;;5053419;28;20358;-69
2022/06/24 08:15:18;;;;;;;6.35;2.67;;;26.80;99.90;;;;;;5053237;28;20099;-68
2022/06/24 08:17:43;;;;;;;3.15;2.20;;;26.90;99.90;;;;;;5053216;28;20036;-69
2022/06/24 08:20:09;;;;;;;11.68;2.70;;;26.90;99.90;;;;;;5053164;28;20025;-68
2022/06/24 08:22:35;;;;;;;4.90;2.33;;;27.00;99.90;;;;;;5053053;28;20025;-69
2022/06/24 08:25:01;;;;;;;7.13;2.45;;;27.00;99.90;;;;;;5053220;28;20025;-69
2022/06/24 08:27:27;;;;;;;7.47;2.33;;;27.10;99.90;;;;;;5054873;28;20025;-69
2022/06/24 08:29:52;;;;;;;3.83;2.10;;;27.10;99.90;;;;;;5056736;28;20036;-69
2022/06/24 08:32:18;;;;;;;7.65;2.67;;;27.30;99.90;;;;;;5056754;28;20481;-69
2022/06/24 08:34:44;;;;;;;13.32;3.08;;;27.40;99.90;;;;;;5056090;28;20032;-69
2022/06/24 08:37:10;;;;;;;8.88;3.03;;;27.70;99.90;;;;;;5057464;28;20033;-68
2022/06/24 08:39:35;;;;;;;7.57;2.83;;;27.70;99.90;;;;;;5056968;28;20386;-69
2022/06/24 08:42:03;;;;;;;10.90;2.63;;;27.70;99.90;;;;;;5056900;28;20025;-69
2022/06/24 08:44:28;;;;;;;10.45;3.40;;;27.70;99.90;;;;;;5056535;28;20032;-68
2022/06/24 08:46:54;;;;;;;9.25;2.90;;;27.70;99.90;;;;;;5056518;28;20028;-69
2022/06/24 08:49:20;;;;;;;11.65;2.67;;;27.70;99.90;;;;;;5056411;28;20389;-68
2022/06/24 08:51:49;;;;;;;5.95;2.45;;;27.60;99.90;;;;;;5056344;28;20021;-69
2022/06/24 08:54:18;;;;;;;9.07;2.95;;;27.60;99.90;;;;;;5056370;28;20104;-68
2022/06/24 08:56:44;;;;;;;4.50;2.08;;;27.70;99.90;;;;;;5056338;28;20045;-68
2022/06/24 08:59:10;;;;;;;6.32;2.80;;;27.70;99.90;;;;;;5056231;28;20055;-68
2022/06/24 09:01:40;;;;;;;6.65;2.88;;;27.70;99.90;;;;;;5056272;28;20405;-68
2022/06/24 09:04:05;;;;;;;13.65;2.92;;;27.70;99.90;;;;;;5056088;28;20470;-68
2022/06/24 09:06:38;;;;;;;16.35;3.42;;;27.70;99.90;;;;;;5053706;28;20029;-69
2022/06/24 09:09:04;;;;;;;6.22;2.58;;;27.70;99.90;;;;;;5056285;28;20070;-68
2022/06/24 09:11:38;;;;;;;6.53;2.92;;;27.90;99.90;;;;;;5056307;28;20029;-68
2022/06/24 09:14:03;;;;;;;10.20;2.83;;;28.00;99.90;;;;;;5056056;28;20021;-68
2022/06/24 09:16:29;;;;;;;4.65;2.42;;;28.00;99.90;;;;;;5055978;28;20025;-69
2022/06/24 09:19:00;;;;;;;5.20;2.88;;;27.80;99.90;;;;;;5047816;28;20033;-69
2022/06/24 09:21:31;;;;;;;10.02;3.25;;;28.20;99.90;;;;;;5056320;28;20021;-69
2022/06/24 09:24:02;;;;;;;11.23;2.95;;;28.60;99.90;;;;;;5055731;28;20029;-69
2022/06/24 09:26:34;;;;;;;6.97;2.88;;;28.90;99.90;;;;;;5055805;28;20416;-68
2022/06/24 09:29:03;;;;;;;10.70;3.22;;;29.20;99.90;;;;;;5056087;28;20350;-68
2022/06/24 09:31:31;;;;;;;12.55;3.05;;;29.30;99.90;;;;;;5056078;28;20024;-68
2022/06/24 09:34:12;;;;;;;5.80;2.65;;;29.50;99.90;;;;;;5055579;28;20049;-69
2022/06/24 09:36:39;;;;;;;7.55;2.40;;;29.70;99.90;;;;;;5055557;28;20063;-69
2022/06/24 09:39:08;;;;;;;9.68;2.30;;;29.60;99.90;;;;;;5055644;28;20087;-68
2022/06/24 09:41:45;;;;;;;5.80;2.65;;;29.70;99.90;;;;;;5055516;28;20032;-69
2022/06/24 09:44:11;;;;;;;7.38;3.53;;;29.80;99.90;;;;;;5055313;28;20400;-68
2022/06/24 09:46:37;;;;;;;5.80;3.00;;;29.80;99.90;;;;;;5055666;28;20048;-68
2022/06/24 09:49:05;;;;;;;10.27;2.75;;;29.70;99.90;;;;;;5055379;28;20025;-69
2022/06/24 09:51:31;;;;;;;10.68;2.80;;;29.60;99.90;;;;;;5055550;28;20039;-69
2022/06/24 09:53:57;;;;;;;3.45;2.78;;;29.60;99.90;;;;;;5055291;28;20025;-68
2022/06/24 09:56:24;;;;;;;5.05;2.85;;;29.70;99.90;;;;;;5055506;28;20100;-68
2022/06/24 10:01:37;;;;;;;10.93;2.88;;;29.80;99.90;;;;;;5055190;28;20181;-68
2022/06/24 10:04:05;;;;;;;9.27;3.65;;;30.00;99.90;;;;;;5054854;28;20029;-68
2022/06/24 10:06:37;;;;;;;18.95;3.08;;;30.10;99.90;;;;;;5054959;28;20048;-69
2022/06/24 10:09:05;;;;;;;16.17;3.90;;;30.10;99.90;;;;;;5056044;28;20539;-69
2022/06/24 10:11:34;;;;;;;6.75;3.42;;;30.20;99.90;;;;;;5057169;28;20021;-69
2022/06/24 10:14:00;;;;;;;8.02;3.08;;;30.50;99.90;;;;;;5055844;28;20028;-69
2022/06/24 10:16:26;;;;;;;5.50;3.05;;;30.70;99.90;;;;;;5054981;28;20431;-69
2022/06/24 10:18:53;;;;;;;15.32;3.63;;;30.80;99.90;;;;;;5054887;28;20036;-69
2022/06/24 10:21:19;;;;;;;14.45;3.35;;;30.80;99.90;;;;;;5054988;28;20024;-69
2022/06/24 10:23:50;;;;;;;7.40;2.80;;;30.80;99.90;;;;;;5054579;28;20435;-69
2022/06/24 10:26:34;;;;;;;6.40;2.58;;;31.00;99.90;;;;;;5054812;28;20075;-69
2022/06/24 10:29:06;;;;;;;7.00;3.10;;;31.00;99.90;;;;;;5055192;28;20013;-68
2022/06/24 10:31:37;;;;;;;7.70;3.05;;;31.10;99.90;;;;;;5054833;28;20021;-68
2022/06/24 10:34:03;;;;;;;7.13;2.60;;;31.10;99.90;;;;;;5054326;28;20033;-69
2022/06/24 10:36:32;;;;;;;9.55;2.78;;;31.20;99.90;;;;;;5036561;28;20440;-69
2022/06/24 10:39:11;;;;;;;8.65;2.60;;;31.20;99.90;;;;;;5054802;28;20052;-68
2022/06/24 10:41:38;;;;;;;9.70;2.97;;;31.30;99.90;;;;;;5054598;28;20029;-69
2022/06/24 10:44:22;;;;;;;5.25;2.78;;;31.40;99.90;;;;;;5054186;28;20029;-69
2022/06/24 10:47:08;;;;;;;7.35;3.05;;;31.30;99.90;;;;;;5054249;28;20024;-69
2022/06/24 10:49:52;;;;;;;6.68;2.80;;;31.30;99.90;;;;;;5053399;28;20017;-70
2022/06/24 10:52:36;;;;;;;10.18;2.90;;;31.30;99.90;;;;;;5054208;28;20393;-69
2022/06/24 10:57:54;;;;;;;8.85;3.25;;;31.50;99.90;;;;;;5054436;28;20037;-69
2022/06/24 11:00:21;;;;;;;6.38;2.88;;;31.90;99.90;;;;;;5054107;28;20033;-71
2022/06/24 11:03:11;;;;;;;7.78;3.42;;;32.20;99.90;;;;;;5054048;28;20541;-71
2022/06/24 11:05:39;;;;;;;13.45;3.20;;;32.40;99.90;;;;;;5054280;28;20170;-71
2022/06/24 11:08:12;;;;;;;12.68;3.05;;;32.70;99.90;;;;;;5053897;28;20389;-71
2022/06/24 11:10:37;;;;;;;13.48;2.90;;;32.60;99.90;;;;;;5054058;28;20362;-71
2022/06/24 11:13:03;;;;;;;11.30;3.17;;;32.60;99.90;;;;;;5053760;28;20079;-71
2022/06/24 11:15:49;;;;;;;8.43;3.30;;;32.70;99.90;;;;;;5054400;28;20113;-71
2022/06/24 11:18:20;;;;;;;10.07;3.13;;;32.80;99.90;;;;;;5053731;28;20021;-71
2022/06/24 11:20:54;;;;;;;13.15;3.13;;;32.70;99.90;;;;;;5053855;28;20083;-71
2022/06/24 11:23:21;;;;;;;6.85;2.92;;;32.70;99.90;;;;;;5053909;28;20469;-71
2022/06/24 11:25:57;;;;;;;6.68;3.22;;;32.70;99.90;;;;;;5054257;28;20025;-70
2022/06/24 11:28:23;;;;;;;4.95;2.40;;;32.90;99.90;;;;;;5053783;28;20021;-71
2022/06/24 11:30:50;;;;;;;8.45;2.80;;;33.00;99.90;;;;;;5053944;28;20551;-71
2022/06/24 11:33:16;;;;;;;4.88;2.92;;;33.00;99.90;;;;;;5053757;28;20477;-71
2022/06/24 11:35:41;;;;;;;7.90;3.10;;;33.20;99.90;;;;;;5053732;28;20037;-71
2022/06/24 11:38:08;;;;;;;8.32;3.00;;;33.20;99.90;;;;;;5053723;28;20074;-71
2022/06/24 11:40:35;;;;;;;13.40;2.90;;;33.30;99.90;;;;;;5053694;28;20047;-71
2022/06/24 11:43:07;;;;;;;6.55;3.05;;;33.30;99.90;;;;;;5053247;28;20041;-72
2022/06/24 11:45:35;;;;;;;8.30;2.70;;;33.50;99.90;;;;;;5053769;28;20029;-70
2022/06/24 11:48:01;;;;;;;6.05;3.25;;;33.50;99.90;;;;;;5053795;28;20029;-70
2022/06/24 11:50:27;;;;;;;10.63;3.28;;;33.60;99.90;;;;;;5053682;28;20473;-70
2022/06/24 11:52:52;;;;;;;7.85;3.15;;;33.50;99.90;;;;;;5053532;28;20021;-71
2022/06/24 11:55:33;;;;;;;6.55;3.20;;;33.40;99.90;;;;;;5053510;28;20078;-68
2022/06/24 11:58:00;;;;;;;5.53;2.70;;;33.40;99.90;;;;;;5053508;28;20024;-69
2022/06/24 12:00:29;;;;;;;7.70;2.70;;;33.80;99.90;;;;;;5053736;28;20025;-68
2022/06/24 12:02:56;;;;;;;9.48;2.80;;;34.00;99.90;;;;;;5057198;28;20028;-69
2022/06/24 12:05:25;;;;;;;7.47;2.45;;;34.30;99.90;;;;;;5057142;28;20504;-69
2022/06/24 12:07:51;;;;;;;11.15;3.38;;;34.60;99.90;;;;;;5057597;28;20036;-68
2022/06/24 12:10:17;;;;;;;7.90;2.63;;;34.80;99.90;;;;;;5057327;28;20025;-68
2022/06/24 12:13:00;;;;;;;4.35;2.67;;;35.10;99.90;;;;;;5056872;28;20381;-69
2022/06/24 12:15:37;;;;;;;13.10;2.95;;;35.40;99.90;;;;;;5057319;28;20389;-69
2022/06/24 12:18:23;;;;;;;6.43;3.05;;;35.50;99.90;;;;;;5057134;28;20428;-68
2022/06/24 12:20:59;;;;;;;8.82;2.92;;;35.60;99.90;;;;;;5056875;28;20370;-70
2022/06/24 12:23:34;;;;;;;8.05;3.17;;;35.90;99.90;;;;;;5057100;28;20029;-69
2022/06/24 12:26:13;;;;;;;12.88;2.38;;;36.10;99.90;;;;;;5057277;28;20025;-68
2022/06/24 12:28:39;;;;;;;8.50;3.03;;;36.00;99.90;;;;;;5056770;28;20017;-69
2022/06/24 12:31:07;;;;;;;6.90;2.53;;;36.20;99.90;;;;;;5057790;28;20029;-69
2022/06/24 12:33:35;;;;;;;9.82;2.92;;;36.80;99.90;;;;;;5040276;28;20481;-69
2022/06/24 12:36:08;;;;;;;8.18;2.80;;;36.90;99.90;;;;;;5057402;28;20168;-69
2022/06/24 12:38:35;;;;;;;6.15;2.67;;;37.10;99.90;;;;;;5056964;28;20025;-69
2022/06/24 12:41:08;;;;;;;5.43;2.67;;;37.30;99.90;;;;;;5056708;28;20049;-69
2022/06/24 12:43:34;;;;;;;11.98;2.85;;;37.50;99.90;;;;;;5056245;28;20052;-69
2022/06/24 12:46:03;;;;;;;4.60;2.72;;;37.50;99.90;;;;;;5039258;28;20064;-71
2022/06/24 12:51:13;;;;;;;11.68;2.58;;;36.30;99.90;;;;;;5057136;28;20393;-71
2022/06/24 12:53:45;;;;;;;10.55;2.60;;;36.60;99.90;;;;;;5056713;28;20021;-71
2022/06/24 12:56:11;;;;;;;4.35;2.42;;;36.90;99.90;;;;;;5056535;28;20469;-71
2022/06/24 12:58:36;;;;;;;5.40;2.67;;;36.20;99.90;;;;;;5056233;28;20040;-70
2022/06/24 13:01:02;;;;;;;9.70;2.90;;;35.40;99.90;;;;;;5056372;28;20477;-71
2022/06/24 13:03:28;;;;;;;8.80;3.17;;;34.10;99.90;;;;;;5056460;28;20487;-70